sensor_id;sensor_type;location;lat;lon;timestamp;temperature;humidity
52034;DHT22;38045;52.988;6.536;2023-02-08T00:01:18;-2.00;99.90
52034;DHT22;38045;52.988;6.536;2023-02-08T00:03:44;-2.00;99.90
52034;DHT22;38045;52.988;6.536;2023-02-08T00:06:10;-2.00;99.90
52034;DHT22;38045;52.988;6.536;2023-02-08T00:08:36;-2.00;99.90
52034;DHT22;38045;52.988;6.536;2023-02-08T00:11:03;-2.00;99.90
52034;DHT22;38045;52.988;6.536;2023-02-08T00:13:29;-2.00;99.90
52034;DHT22;38045;52.988;6.536;2023-02-08T00:15:54;-2.10;99.90
52034;DHT22;38045;52.988;6.536;2023-02-08T00:18:20;-2.10;99.90
52034;DHT22;38045;52.988;6.536;2023-02-08T00:20:47;-2.00;99.90
52034;DHT22;38045;52.988;6.536;2023-02-08T00:23:13;-2.00;99.90
52034;DHT22;38045;52.988;6.536;2023-02-08T00:25:40;-2.10;99.90
52034;DHT22;38045;52.988;6.536;2023-02-08T00:28:07;-2.10;99.90
52034;DHT22;38045;52.988;6.536;2023-02-08T00:30:35;-2.20;99.90
52034;DHT22;38045;52.988;6.536;2023-02-08T00:33:01;-2.20;99.90
52034;DHT22;38045;52.988;6.536;2023-02-08T00:35:27;-2.20;99.90
52034;DHT22;38045;52.988;6.536;2023-02-08T00:37:53;-2.20;99.90
52034;DHT22;38045;52.988;6.536;2023-02-08T00:40:19;-2.20;99.90
52034;DHT22;38045;52.988;6.536;2023-02-08T00:42:44;-2.30;99.90
52034;DHT22;38045;52.988;6.536;2023-02-08T00:45:10;-2.30;99.90
52034;DHT22;38045;52.988;6.536;2023-02-08T00:47:36;-2.30;99.90
52034;DHT22;38045;52.988;6.536;2023-02-08T00:50:03;-2.30;99.90
52034;DHT22;38045;52.988;6.536;2023-02-08T00:52:29;-2.30;99.90
52034;DHT22;38045;52.988;6.536;2023-02-08T00:54:54;-2.30;99.90
52034;DHT22;38045;52.988;6.536;2023-02-08T00:57:20;-2.30;99.90
52034;DHT22;38045;52.988;6.536;2023-02-08T00:59:45;-2.30;99.90
52034;DHT22;38045;52.988;6.536;2023-02-08T01:02:11;-2.20;99.90
52034;DHT22;38045;52.988;6.536;2023-02-08T01:04:37;-2.30;99.90
52034;DHT22;38045;52.988;6.536;2023-02-08T01:07:03;-2.20;99.90
52034;DHT22;38045;52.988;6.536;2023-02-08T01:09:29;-2.20;99.90
52034;DHT22;38045;52.988;6.536;2023-02-08T01:11:55;-2.30;99.90
52034;DHT22;38045;52.988;6.536;2023-02-08T01:14:20;-2.30;99.90
52034;DHT22;38045;52.988;6.536;2023-02-08T01:16:46;-2.30;99.90
52034;DHT22;38045;52.988;6.536;2023-02-08T01:19:12;-2.20;99.90
52034;DHT22;38045;52.988;6.536;2023-02-08T01:21:39;-2.20;99.90
52034;DHT22;38045;52.988;6.536;2023-02-08T01:24:05;-2.20;99.90
52034;DHT22;38045;52.988;6.536;2023-02-08T01:26:32;-2.10;99.90
52034;DHT22;38045;52.988;6.536;2023-02-08T01:28:58;-2.20;99.90
52034;DHT22;38045;52.988;6.536;2023-02-08T01:31:27;-2.20;99.90
52034;DHT22;38045;52.988;6.536;2023-02-08T01:33:54;-2.20;99.90
52034;DHT22;38045;52.988;6.536;2023-02-08T01:36:20;-2.30;99.90
52034;DHT22;38045;52.988;6.536;2023-02-08T01:38:46;-2.30;99.90
52034;DHT22;38045;52.988;6.536;2023-02-08T01:41:23;-2.30;99.90
52034;DHT22;38045;52.988;6.536;2023-02-08T01:47:12;-2.30;99.90
52034;DHT22;38045;52.988;6.536;2023-02-08T01:49:37;-2.30;99.90
52034;DHT22;38045;52.988;6.536;2023-02-08T01:52:16;-2.40;99.90
52034;DHT22;38045;52.988;6.536;2023-02-08T01:54:49;-2.40;99.90
52034;DHT22;38045;52.988;6.536;2023-02-08T01:57:15;-2.40;99.90
52034;DHT22;38045;52.988;6.536;2023-02-08T01:59:44;-2.40;99.90
52034;DHT22;38045;52.988;6.536;2023-02-08T02:02:14;-2.40;99.90
52034;DHT22;38045;52.988;6.536;2023-02-08T02:04:41;-2.50;99.90
52034;DHT22;38045;52.988;6.536;2023-02-08T02:07:07;-2.50;99.90
52034;DHT22;38045;52.988;6.536;2023-02-08T02:12:08;-2.50;99.90
52034;DHT22;38045;52.988;6.536;2023-02-08T02:14:36;-2.50;99.90
52034;DHT22;38045;52.988;6.536;2023-02-08T02:17:03;-2.50;99.90
52034;DHT22;38045;52.988;6.536;2023-02-08T02:30:34;-2.60;99.90
52034;DHT22;38045;52.988;6.536;2023-02-08T02:36:05;-2.60;99.90
52034;DHT22;38045;52.988;6.536;2023-02-08T02:44:20;-2.70;99.90
52034;DHT22;38045;52.988;6.536;2023-02-08T02:46:51;-2.70;99.90
52034;DHT22;38045;52.988;6.536;2023-02-08T02:49:31;-2.70;99.90
52034;DHT22;38045;52.988;6.536;2023-02-08T02:52:02;-2.70;99.90
52034;DHT22;38045;52.988;6.536;2023-02-08T02:54:41;-2.70;99.90
52034;DHT22;38045;52.988;6.536;2023-02-08T02:57:15;-2.70;99.90
52034;DHT22;38045;52.988;6.536;2023-02-08T02:59:42;-2.70;99.90
52034;DHT22;38045;52.988;6.536;2023-02-08T03:02:09;-2.70;99.90
52034;DHT22;38045;52.988;6.536;2023-02-08T03:10:03;-2.70;99.90
52034;DHT22;38045;52.988;6.536;2023-02-08T03:18:14;-2.70;99.90
52034;DHT22;38045;52.988;6.536;2023-02-08T03:20:52;-2.70;99.90
52034;DHT22;38045;52.988;6.536;2023-02-08T03:23:29;-2.70;99.90
52034;DHT22;38045;52.988;6.536;2023-02-08T03:26:09;-2.70;99.90
52034;DHT22;38045;52.988;6.536;2023-02-08T03:34:08;-2.80;99.90
52034;DHT22;38045;52.988;6.536;2023-02-08T03:36:41;-2.80;99.90
52034;DHT22;38045;52.988;6.536;2023-02-08T03:39:11;-2.80;99.90
52034;DHT22;38045;52.988;6.536;2023-02-08T03:41:39;-2.70;99.90
52034;DHT22;38045;52.988;6.536;2023-02-08T03:47:21;-2.80;99.90
52034;DHT22;38045;52.988;6.536;2023-02-08T03:49:48;-2.80;99.90
52034;DHT22;38045;52.988;6.536;2023-02-08T03:52:16;-2.80;99.90
52034;DHT22;38045;52.988;6.536;2023-02-08T03:54:50;-2.80;99.90
52034;DHT22;38045;52.988;6.536;2023-02-08T03:57:28;-2.80;99.90
52034;DHT22;38045;52.988;6.536;2023-02-08T04:00:00;-2.80;99.90
52034;DHT22;38045;52.988;6.536;2023-02-08T04:02:28;-2.80;99.90
52034;DHT22;38045;52.988;6.536;2023-02-08T04:04:57;-2.90;99.90
52034;DHT22;38045;52.988;6.536;2023-02-08T04:07:23;-2.90;99.90
52034;DHT22;38045;52.988;6.536;2023-02-08T04:09:48;-2.90;99.90
52034;DHT22;38045;52.988;6.536;2023-02-08T04:12:14;-2.90;99.90
52034;DHT22;38045;52.988;6.536;2023-02-08T04:14:40;-2.90;99.90
52034;DHT22;38045;52.988;6.536;2023-02-08T04:17:06;-2.80;99.90
52034;DHT22;38045;52.988;6.536;2023-02-08T04:19:31;-2.80;99.90
52034;DHT22;38045;52.988;6.536;2023-02-08T04:21:57;-2.80;99.90
52034;DHT22;38045;52.988;6.536;2023-02-08T04:24:23;-2.80;99.90
52034;DHT22;38045;52.988;6.536;2023-02-08T04:26:48;-2.80;99.90
52034;DHT22;38045;52.988;6.536;2023-02-08T04:29:15;-2.80;99.90
52034;DHT22;38045;52.988;6.536;2023-02-08T04:31:41;-2.80;99.90
52034;DHT22;38045;52.988;6.536;2023-02-08T04:34:07;-2.90;99.90
52034;DHT22;38045;52.988;6.536;2023-02-08T04:36:32;-2.90;99.90
52034;DHT22;38045;52.988;6.536;2023-02-08T04:38:58;-2.90;99.90
52034;DHT22;38045;52.988;6.536;2023-02-08T04:41:23;-2.90;99.90
52034;DHT22;38045;52.988;6.536;2023-02-08T04:43:49;-2.90;99.90
52034;DHT22;38045;52.988;6.536;2023-02-08T04:46:15;-2.90;99.90
52034;DHT22;38045;52.988;6.536;2023-02-08T04:48:40;-2.90;99.90
52034;DHT22;38045;52.988;6.536;2023-02-08T04:51:06;-3.00;99.90
52034;DHT22;38045;52.988;6.536;2023-02-08T04:53:31;-3.00;99.90
52034;DHT22;38045;52.988;6.536;2023-02-08T04:55:57;-3.00;99.90
52034;DHT22;38045;52.988;6.536;2023-02-08T04:58:23;-3.00;99.90
52034;DHT22;38045;52.988;6.536;2023-02-08T05:00:48;-3.00;99.90
52034;DHT22;38045;52.988;6.536;2023-02-08T05:03:14;-3.00;99.90
52034;DHT22;38045;52.988;6.536;2023-02-08T05:05:40;-3.10;99.90
52034;DHT22;38045;52.988;6.536;2023-02-08T05:08:05;-3.10;99.90
52034;DHT22;38045;52.988;6.536;2023-02-08T05:10:31;-3.10;99.90
52034;DHT22;38045;52.988;6.536;2023-02-08T05:12:57;-3.10;99.90
52034;DHT22;38045;52.988;6.536;2023-02-08T05:15:23;-3.10;99.90
52034;DHT22;38045;52.988;6.536;2023-02-08T05:17:48;-3.10;99.90
52034;DHT22;38045;52.988;6.536;2023-02-08T05:20:14;-3.10;99.90
52034;DHT22;38045;52.988;6.536;2023-02-08T05:22:40;-3.10;99.90
52034;DHT22;38045;52.988;6.536;2023-02-08T05:25:06;-3.10;99.90
52034;DHT22;38045;52.988;6.536;2023-02-08T05:27:33;-3.10;99.90
52034;DHT22;38045;52.988;6.536;2023-02-08T05:29:59;-3.10;99.90
52034;DHT22;38045;52.988;6.536;2023-02-08T05:32:25;-3.00;99.90
52034;DHT22;38045;52.988;6.536;2023-02-08T05:34:50;-3.00;99.90
52034;DHT22;38045;52.988;6.536;2023-02-08T05:37:16;-3.10;99.90
52034;DHT22;38045;52.988;6.536;2023-02-08T05:39:41;-3.00;99.90
52034;DHT22;38045;52.988;6.536;2023-02-08T05:42:07;-3.10;99.90
52034;DHT22;38045;52.988;6.536;2023-02-08T05:44:33;-3.10;99.90
52034;DHT22;38045;52.988;6.536;2023-02-08T05:46:58;-3.10;99.90
52034;DHT22;38045;52.988;6.536;2023-02-08T05:49:24;-3.10;99.90
52034;DHT22;38045;52.988;6.536;2023-02-08T05:51:49;-3.10;99.90
52034;DHT22;38045;52.988;6.536;2023-02-08T05:54:16;-3.00;99.90
52034;DHT22;38045;52.988;6.536;2023-02-08T05:56:42;-3.10;99.90
52034;DHT22;38045;52.988;6.536;2023-02-08T05:59:08;-3.00;99.90
52034;DHT22;38045;52.988;6.536;2023-02-08T06:01:34;-3.10;99.90
52034;DHT22;38045;52.988;6.536;2023-02-08T06:04:00;-3.10;99.90
52034;DHT22;38045;52.988;6.536;2023-02-08T06:06:26;-3.10;99.90
52034;DHT22;38045;52.988;6.536;2023-02-08T06:08:51;-3.20;99.90
52034;DHT22;38045;52.988;6.536;2023-02-08T06:11:17;-3.20;99.90
52034;DHT22;38045;52.988;6.536;2023-02-08T06:13:44;-3.20;99.90
52034;DHT22;38045;52.988;6.536;2023-02-08T06:16:11;-3.20;99.90
52034;DHT22;38045;52.988;6.536;2023-02-08T06:18:36;-3.30;99.90
52034;DHT22;38045;52.988;6.536;2023-02-08T06:21:02;-3.30;99.90
52034;DHT22;38045;52.988;6.536;2023-02-08T06:23:28;-3.30;99.90
52034;DHT22;38045;52.988;6.536;2023-02-08T06:25:54;-3.30;99.90
52034;DHT22;38045;52.988;6.536;2023-02-08T06:28:20;-3.30;99.90
52034;DHT22;38045;52.988;6.536;2023-02-08T06:30:48;-3.30;99.90
52034;DHT22;38045;52.988;6.536;2023-02-08T06:33:13;-3.30;99.90
52034;DHT22;38045;52.988;6.536;2023-02-08T06:35:39;-3.30;99.90
52034;DHT22;38045;52.988;6.536;2023-02-08T06:38:04;-3.40;99.90
52034;DHT22;38045;52.988;6.536;2023-02-08T06:40:30;-3.40;99.90
52034;DHT22;38045;52.988;6.536;2023-02-08T06:42:56;-3.40;99.90
52034;DHT22;38045;52.988;6.536;2023-02-08T06:45:21;-3.40;99.90
52034;DHT22;38045;52.988;6.536;2023-02-08T06:47:47;-3.50;99.90
52034;DHT22;38045;52.988;6.536;2023-02-08T06:50:12;-3.50;99.90
52034;DHT22;38045;52.988;6.536;2023-02-08T06:52:39;-3.40;99.90
52034;DHT22;38045;52.988;6.536;2023-02-08T06:55:05;-3.40;99.90
52034;DHT22;38045;52.988;6.536;2023-02-08T06:57:31;-3.40;99.90
52034;DHT22;38045;52.988;6.536;2023-02-08T06:59:56;-3.40;99.90
52034;DHT22;38045;52.988;6.536;2023-02-08T07:02:22;-3.30;99.90
52034;DHT22;38045;52.988;6.536;2023-02-08T07:04:48;-3.30;99.90
52034;DHT22;38045;52.988;6.536;2023-02-08T07:07:15;-3.30;99.90
52034;DHT22;38045;52.988;6.536;2023-02-08T07:09:41;-3.30;99.90
52034;DHT22;38045;52.988;6.536;2023-02-08T07:12:07;-3.30;99.90
52034;DHT22;38045;52.988;6.536;2023-02-08T07:14:34;-3.20;99.90
52034;DHT22;38045;52.988;6.536;2023-02-08T07:17:01;-3.20;99.90
52034;DHT22;38045;52.988;6.536;2023-02-08T07:19:27;-3.20;99.90
52034;DHT22;38045;52.988;6.536;2023-02-08T07:21:53;-3.20;99.90
52034;DHT22;38045;52.988;6.536;2023-02-08T07:24:19;-3.20;99.90
52034;DHT22;38045;52.988;6.536;2023-02-08T07:26:45;-3.20;99.90
52034;DHT22;38045;52.988;6.536;2023-02-08T07:29:10;-3.20;99.90
52034;DHT22;38045;52.988;6.536;2023-02-08T07:31:37;-3.20;99.90
52034;DHT22;38045;52.988;6.536;2023-02-08T07:34:02;-3.10;99.90
52034;DHT22;38045;52.988;6.536;2023-02-08T07:36:28;-3.20;99.90
52034;DHT22;38045;52.988;6.536;2023-02-08T07:38:54;-3.20;99.90
52034;DHT22;38045;52.988;6.536;2023-02-08T07:41:20;-3.20;99.90
52034;DHT22;38045;52.988;6.536;2023-02-08T07:43:45;-3.20;99.90
52034;DHT22;38045;52.988;6.536;2023-02-08T07:46:18;-3.10;99.90
52034;DHT22;38045;52.988;6.536;2023-02-08T07:48:43;-3.10;99.90
52034;DHT22;38045;52.988;6.536;2023-02-08T07:51:10;-3.00;99.90
52034;DHT22;38045;52.988;6.536;2023-02-08T07:53:36;-2.90;99.90
52034;DHT22;38045;52.988;6.536;2023-02-08T07:56:02;-2.90;99.90
52034;DHT22;38045;52.988;6.536;2023-02-08T07:58:28;-2.80;99.90
52034;DHT22;38045;52.988;6.536;2023-02-08T08:00:53;-2.70;99.90
52034;DHT22;38045;52.988;6.536;2023-02-08T08:03:19;-2.60;99.90
52034;DHT22;38045;52.988;6.536;2023-02-08T08:05:45;-2.50;99.90
52034;DHT22;38045;52.988;6.536;2023-02-08T08:08:11;-2.40;99.90
52034;DHT22;38045;52.988;6.536;2023-02-08T08:10:37;-2.20;99.90
52034;DHT22;38045;52.988;6.536;2023-02-08T08:13:03;-2.10;99.90
52034;DHT22;38045;52.988;6.536;2023-02-08T08:15:29;-2.00;99.90
52034;DHT22;38045;52.988;6.536;2023-02-08T08:17:54;-1.90;99.90
52034;DHT22;38045;52.988;6.536;2023-02-08T08:20:20;-1.80;99.90
52034;DHT22;38045;52.988;6.536;2023-02-08T08:22:46;-1.70;99.90
52034;DHT22;38045;52.988;6.536;2023-02-08T08:25:12;-1.60;99.90
52034;DHT22;38045;52.988;6.536;2023-02-08T08:27:38;-1.50;99.90
52034;DHT22;38045;52.988;6.536;2023-02-08T08:30:12;-1.50;99.90
52034;DHT22;38045;52.988;6.536;2023-02-08T08:32:39;-1.40;99.90
52034;DHT22;38045;52.988;6.536;2023-02-08T08:35:05;-1.30;99.90
52034;DHT22;38045;52.988;6.536;2023-02-08T08:37:32;-1.20;99.90
52034;DHT22;38045;52.988;6.536;2023-02-08T08:39:58;-1.10;99.90
52034;DHT22;38045;52.988;6.536;2023-02-08T08:42:24;-1.10;99.90
52034;DHT22;38045;52.988;6.536;2023-02-08T08:44:51;-1.00;99.90
52034;DHT22;38045;52.988;6.536;2023-02-08T08:47:17;-0.90;99.90
52034;DHT22;38045;52.988;6.536;2023-02-08T08:49:42;-0.80;99.90
52034;DHT22;38045;52.988;6.536;2023-02-08T08:52:09;-0.70;99.90
52034;DHT22;38045;52.988;6.536;2023-02-08T08:54:35;-0.60;99.90
52034;DHT22;38045;52.988;6.536;2023-02-08T08:57:00;-0.50;99.90
52034;DHT22;38045;52.988;6.536;2023-02-08T08:59:26;-0.40;99.90
52034;DHT22;38045;52.988;6.536;2023-02-08T09:01:52;-0.30;99.90
52034;DHT22;38045;52.988;6.536;2023-02-08T09:04:18;-0.20;99.90
52034;DHT22;38045;52.988;6.536;2023-02-08T09:06:47;-0.10;99.90
52034;DHT22;38045;52.988;6.536;2023-02-08T09:09:13;0.00;99.90
52034;DHT22;38045;52.988;6.536;2023-02-08T09:11:38;0.10;99.90
52034;DHT22;38045;52.988;6.536;2023-02-08T09:14:04;0.10;99.90
52034;DHT22;38045;52.988;6.536;2023-02-08T09:16:31;0.20;99.90
52034;DHT22;38045;52.988;6.536;2023-02-08T09:19:00;0.20;99.90
52034;DHT22;38045;52.988;6.536;2023-02-08T09:21:26;0.20;99.90
52034;DHT22;38045;52.988;6.536;2023-02-08T09:23:52;0.20;99.90
52034;DHT22;38045;52.988;6.536;2023-02-08T09:26:18;0.30;99.90
52034;DHT22;38045;52.988;6.536;2023-02-08T09:28:44;0.40;99.90
52034;DHT22;38045;52.988;6.536;2023-02-08T09:31:14;0.40;99.90
52034;DHT22;38045;52.988;6.536;2023-02-08T09:33:42;0.40;99.90
52034;DHT22;38045;52.988;6.536;2023-02-08T09:36:08;0.50;99.90
52034;DHT22;38045;52.988;6.536;2023-02-08T09:38:34;0.50;99.90
52034;DHT22;38045;52.988;6.536;2023-02-08T09:43:43;0.80;99.90
52034;DHT22;38045;52.988;6.536;2023-02-08T09:46:16;0.90;99.90
52034;DHT22;38045;52.988;6.536;2023-02-08T09:48:44;1.00;99.90
52034;DHT22;38045;52.988;6.536;2023-02-08T09:51:33;1.10;99.90
52034;DHT22;38045;52.988;6.536;2023-02-08T09:54:12;1.20;99.90
52034;DHT22;38045;52.988;6.536;2023-02-08T09:56:41;1.40;99.90
52034;DHT22;38045;52.988;6.536;2023-02-08T09:59:28;1.50;99.90
52034;DHT22;38045;52.988;6.536;2023-02-08T10:05:18;1.90;99.90
52034;DHT22;38045;52.988;6.536;2023-02-08T10:07:44;2.00;99.90
52034;DHT22;38045;52.988;6.536;2023-02-08T10:11:00;2.20;99.90
52034;DHT22;38045;52.988;6.536;2023-02-08T10:13:30;2.40;99.90
52034;DHT22;38045;52.988;6.536;2023-02-08T10:18:51;2.90;99.90
52034;DHT22;38045;52.988;6.536;2023-02-08T10:35:00;3.60;99.90
52034;DHT22;38045;52.988;6.536;2023-02-08T10:37:31;3.70;99.90
52034;DHT22;38045;52.988;6.536;2023-02-08T10:43:01;4.00;99.90
52034;DHT22;38045;52.988;6.536;2023-02-08T10:45:37;4.00;99.90
52034;DHT22;38045;52.988;6.536;2023-02-08T10:48:16;4.20;99.90
52034;DHT22;38045;52.988;6.536;2023-02-08T10:50:44;4.20;99.90
52034;DHT22;38045;52.988;6.536;2023-02-08T10:53:13;4.20;99.90
52034;DHT22;38045;52.988;6.536;2023-02-08T10:55:41;4.20;99.90
52034;DHT22;38045;52.988;6.536;2023-02-08T10:58:16;4.30;99.90
52034;DHT22;38045;52.988;6.536;2023-02-08T11:00:44;4.40;99.90
52034;DHT22;38045;52.988;6.536;2023-02-08T11:05:45;4.60;99.90
52034;DHT22;38045;52.988;6.536;2023-02-08T11:08:16;4.80;99.90
52034;DHT22;38045;52.988;6.536;2023-02-08T11:13:33;5.20;99.90
52034;DHT22;38045;52.988;6.536;2023-02-08T11:16:00;5.30;99.90
52034;DHT22;38045;52.988;6.536;2023-02-08T11:21:04;5.50;99.90
52034;DHT22;38045;52.988;6.536;2023-02-08T11:23:35;5.50;99.90
52034;DHT22;38045;52.988;6.536;2023-02-08T11:26:18;5.70;99.90
52034;DHT22;38045;52.988;6.536;2023-02-08T11:29:02;5.90;99.90
52034;DHT22;38045;52.988;6.536;2023-02-08T11:31:29;6.10;99.90
52034;DHT22;38045;52.988;6.536;2023-02-08T11:34:09;6.10;99.90
52034;DHT22;38045;52.988;6.536;2023-02-08T11:36:37;6.30;99.90
52034;DHT22;38045;52.988;6.536;2023-02-08T11:39:34;6.40;99.90
52034;DHT22;38045;52.988;6.536;2023-02-08T11:42:02;6.50;99.90
52034;DHT22;38045;52.988;6.536;2023-02-08T11:44:32;6.50;99.10
52034;DHT22;38045;52.988;6.536;2023-02-08T11:47:02;6.60;99.90
52034;DHT22;38045;52.988;6.536;2023-02-08T11:52:00;6.60;99.50
52034;DHT22;38045;52.988;6.536;2023-02-08T11:54:44;6.60;99.90
52034;DHT22;38045;52.988;6.536;2023-02-08T11:57:24;6.60;99.20
52034;DHT22;38045;52.988;6.536;2023-02-08T12:00:16;6.70;98.10
52034;DHT22;38045;52.988;6.536;2023-02-08T12:02:42;6.80;99.60
52034;DHT22;38045;52.988;6.536;2023-02-08T12:05:17;6.80;98.90
52034;DHT22;38045;52.988;6.536;2023-02-08T12:10:48;6.90;99.30
52034;DHT22;38045;52.988;6.536;2023-02-08T12:19:00;7.30;98.10
52034;DHT22;38045;52.988;6.536;2023-02-08T12:24:32;7.40;97.10
52034;DHT22;38045;52.988;6.536;2023-02-08T12:30:17;7.40;96.70
52034;DHT22;38045;52.988;6.536;2023-02-08T12:35:55;7.20;95.60
52034;DHT22;38045;52.988;6.536;2023-02-08T12:38:46;7.10;94.30
52034;DHT22;38045;52.988;6.536;2023-02-08T12:42:11;7.00;95.10
52034;DHT22;38045;52.988;6.536;2023-02-08T12:47:48;7.10;94.00
52034;DHT22;38045;52.988;6.536;2023-02-08T12:52:53;7.30;95.00
52034;DHT22;38045;52.988;6.536;2023-02-08T12:55:28;7.40;94.90
52034;DHT22;38045;52.988;6.536;2023-02-08T12:57:58;7.40;92.60
52034;DHT22;38045;52.988;6.536;2023-02-08T13:00:24;7.40;93.00
52034;DHT22;38045;52.988;6.536;2023-02-08T13:05:31;7.60;92.40
52034;DHT22;38045;52.988;6.536;2023-02-08T13:08:17;7.70;92.90
52034;DHT22;38045;52.988;6.536;2023-02-08T13:10:48;7.90;90.50
52034;DHT22;38045;52.988;6.536;2023-02-08T13:13:30;8.20;94.40
52034;DHT22;38045;52.988;6.536;2023-02-08T13:16:06;8.30;91.30
52034;DHT22;38045;52.988;6.536;2023-02-08T13:18:42;8.70;93.70
52034;DHT22;38045;52.988;6.536;2023-02-08T13:21:31;9.50;91.80
52034;DHT22;38045;52.988;6.536;2023-02-08T13:23:57;10.80;91.30
52034;DHT22;38045;52.988;6.536;2023-02-08T13:26:26;11.70;84.60
52034;DHT22;38045;52.988;6.536;2023-02-08T13:28:59;12.70;87.50
52034;DHT22;38045;52.988;6.536;2023-02-08T13:31:37;12.90;78.60
52034;DHT22;38045;52.988;6.536;2023-02-08T13:34:12;13.00;79.60
52034;DHT22;38045;52.988;6.536;2023-02-08T13:36:41;13.10;78.70
52034;DHT22;38045;52.988;6.536;2023-02-08T13:39:37;12.80;74.50
52034;DHT22;38045;52.988;6.536;2023-02-08T13:42:06;12.90;77.30
52034;DHT22;38045;52.988;6.536;2023-02-08T13:44:37;12.90;73.20
52034;DHT22;38045;52.988;6.536;2023-02-08T13:47:05;12.40;78.80
52034;DHT22;38045;52.988;6.536;2023-02-08T13:50:02;11.80;77.40
52034;DHT22;38045;52.988;6.536;2023-02-08T14:05:56;10.00;79.50
52034;DHT22;38045;52.988;6.536;2023-02-08T14:08:39;9.90;78.80
52034;DHT22;38045;52.988;6.536;2023-02-08T14:13:56;9.60;77.10
52034;DHT22;38045;52.988;6.536;2023-02-08T14:16:31;9.50;78.60
52034;DHT22;38045;52.988;6.536;2023-02-08T14:19:03;9.80;77.30
52034;DHT22;38045;52.988;6.536;2023-02-08T14:24:32;10.50;78.10
52034;DHT22;38045;52.988;6.536;2023-02-08T14:27:18;10.70;76.00
52034;DHT22;38045;52.988;6.536;2023-02-08T14:32:38;11.20;71.20
52034;DHT22;38045;52.988;6.536;2023-02-08T14:37:37;12.50;74.70
52034;DHT22;38045;52.988;6.536;2023-02-08T14:42:54;12.90;75.60
52034;DHT22;38045;52.988;6.536;2023-02-08T14:45:35;13.30;72.50
52034;DHT22;38045;52.988;6.536;2023-02-08T14:50:29;13.80;74.10
52034;DHT22;38045;52.988;6.536;2023-02-08T14:53:19;14.10;75.50
52034;DHT22;38045;52.988;6.536;2023-02-08T14:56:05;14.20;72.60
52034;DHT22;38045;52.988;6.536;2023-02-08T14:58:36;14.50;74.30
52034;DHT22;38045;52.988;6.536;2023-02-08T15:01:20;14.10;71.80
52034;DHT22;38045;52.988;6.536;2023-02-08T15:03:50;14.10;68.10
52034;DHT22;38045;52.988;6.536;2023-02-08T15:09:05;14.30;70.00
52034;DHT22;38045;52.988;6.536;2023-02-08T15:11:32;15.00;70.30
52034;DHT22;38045;52.988;6.536;2023-02-08T15:14:00;15.20;75.80
52034;DHT22;38045;52.988;6.536;2023-02-08T15:16:41;15.10;61.90
52034;DHT22;38045;52.988;6.536;2023-02-08T15:19:08;15.20;70.60
52034;DHT22;38045;52.988;6.536;2023-02-08T15:21:42;15.10;70.10
52034;DHT22;38045;52.988;6.536;2023-02-08T15:24:20;14.40;61.80
52034;DHT22;38045;52.988;6.536;2023-02-08T15:26:55;13.90;65.30
52034;DHT22;38045;52.988;6.536;2023-02-08T15:29:24;13.30;67.50
52034;DHT22;38045;52.988;6.536;2023-02-08T15:31:50;12.70;66.00
52034;DHT22;38045;52.988;6.536;2023-02-08T15:34:17;11.90;65.50
52034;DHT22;38045;52.988;6.536;2023-02-08T15:36:48;11.20;66.20
52034;DHT22;38045;52.988;6.536;2023-02-08T15:39:36;10.50;63.60
52034;DHT22;38045;52.988;6.536;2023-02-08T15:42:24;9.70;63.30
52034;DHT22;38045;52.988;6.536;2023-02-08T15:44:50;9.00;64.70
52034;DHT22;38045;52.988;6.536;2023-02-08T15:47:34;8.70;66.00
52034;DHT22;38045;52.988;6.536;2023-02-08T15:50:01;8.60;66.60
52034;DHT22;38045;52.988;6.536;2023-02-08T15:52:35;8.40;65.20
52034;DHT22;38045;52.988;6.536;2023-02-08T15:55:01;8.20;65.60
52034;DHT22;38045;52.988;6.536;2023-02-08T16:00:20;7.90;65.90
52034;DHT22;38045;52.988;6.536;2023-02-08T16:02:53;7.70;66.50
52034;DHT22;38045;52.988;6.536;2023-02-08T16:05:23;7.40;67.60
52034;DHT22;38045;52.988;6.536;2023-02-08T16:07:49;7.20;68.30
52034;DHT22;38045;52.988;6.536;2023-02-08T16:10:23;7.00;68.10
52034;DHT22;38045;52.988;6.536;2023-02-08T16:12:55;6.90;69.10
52034;DHT22;38045;52.988;6.536;2023-02-08T16:15:36;6.70;68.80
52034;DHT22;38045;52.988;6.536;2023-02-08T16:18:02;6.60;68.60
52034;DHT22;38045;52.988;6.536;2023-02-08T16:20:31;6.40;70.00
52034;DHT22;38045;52.988;6.536;2023-02-08T16:25:46;6.20;69.20
52034;DHT22;38045;52.988;6.536;2023-02-08T16:28:31;6.00;69.80
52034;DHT22;38045;52.988;6.536;2023-02-08T16:31:02;5.90;70.10
52034;DHT22;38045;52.988;6.536;2023-02-08T16:33:29;5.70;70.00
52034;DHT22;38045;52.988;6.536;2023-02-08T16:35:56;5.60;70.50
52034;DHT22;38045;52.988;6.536;2023-02-08T16:38:27;5.50;71.40
52034;DHT22;38045;52.988;6.536;2023-02-08T16:40:55;5.30;71.30
52034;DHT22;38045;52.988;6.536;2023-02-08T16:43:26;5.20;72.70
52034;DHT22;38045;52.988;6.536;2023-02-08T16:48:41;5.00;75.00
52034;DHT22;38045;52.988;6.536;2023-02-08T16:51:13;4.90;76.10
52034;DHT22;38045;52.988;6.536;2023-02-08T16:53:41;4.80;76.70
52034;DHT22;38045;52.988;6.536;2023-02-08T16:56:08;4.70;77.60
52034;DHT22;38045;52.988;6.536;2023-02-08T16:58:34;4.60;78.30
52034;DHT22;38045;52.988;6.536;2023-02-08T17:01:00;4.50;79.20
52034;DHT22;38045;52.988;6.536;2023-02-08T17:03:25;4.40;81.20
52034;DHT22;38045;52.988;6.536;2023-02-08T17:05:51;4.30;80.50
52034;DHT22;38045;52.988;6.536;2023-02-08T17:08:19;4.20;80.60
52034;DHT22;38045;52.988;6.536;2023-02-08T17:10:47;4.10;81.60
52034;DHT22;38045;52.988;6.536;2023-02-08T17:13:17;3.90;83.40
52034;DHT22;38045;52.988;6.536;2023-02-08T17:15:45;3.70;84.00
52034;DHT22;38045;52.988;6.536;2023-02-08T17:18:11;3.60;84.80
52034;DHT22;38045;52.988;6.536;2023-02-08T17:20:37;3.50;86.50
52034;DHT22;38045;52.988;6.536;2023-02-08T17:23:04;3.40;86.30
52034;DHT22;38045;52.988;6.536;2023-02-08T17:25:31;3.20;84.40
52034;DHT22;38045;52.988;6.536;2023-02-08T17:28:03;3.10;87.80
52034;DHT22;38045;52.988;6.536;2023-02-08T17:30:36;3.00;89.30
52034;DHT22;38045;52.988;6.536;2023-02-08T17:33:03;3.00;90.10
52034;DHT22;38045;52.988;6.536;2023-02-08T17:35:30;3.00;89.30
52034;DHT22;38045;52.988;6.536;2023-02-08T17:37:58;2.90;90.00
52034;DHT22;38045;52.988;6.536;2023-02-08T17:40:26;2.90;90.50
52034;DHT22;38045;52.988;6.536;2023-02-08T17:42:54;2.90;90.60
52034;DHT22;38045;52.988;6.536;2023-02-08T17:45:19;2.80;91.50
52034;DHT22;38045;52.988;6.536;2023-02-08T17:47:45;2.80;91.50
52034;DHT22;38045;52.988;6.536;2023-02-08T17:50:14;2.70;89.00
52034;DHT22;38045;52.988;6.536;2023-02-08T17:52:41;2.70;91.90
52034;DHT22;38045;52.988;6.536;2023-02-08T17:55:08;2.60;91.40
52034;DHT22;38045;52.988;6.536;2023-02-08T17:57:36;2.60;92.50
52034;DHT22;38045;52.988;6.536;2023-02-08T18:00:09;2.60;91.80
52034;DHT22;38045;52.988;6.536;2023-02-08T18:02:36;2.50;93.10
52034;DHT22;38045;52.988;6.536;2023-02-08T18:05:02;2.60;93.50
52034;DHT22;38045;52.988;6.536;2023-02-08T18:07:29;2.50;92.40
52034;DHT22;38045;52.988;6.536;2023-02-08T18:09:54;2.50;92.80
52034;DHT22;38045;52.988;6.536;2023-02-08T18:12:20;2.50;93.60
52034;DHT22;38045;52.988;6.536;2023-02-08T18:14:46;2.50;93.20
52034;DHT22;38045;52.988;6.536;2023-02-08T18:17:12;2.40;90.70
52034;DHT22;38045;52.988;6.536;2023-02-08T18:19:37;2.30;90.40